Time;durP1;ratioP1;P1;durP2;ratioP2;P2;SDS_P1;SDS_P2;PMS_P1;PMS_P2;Temp;Humidity;BMP_temperature;BMP_pressure;BME280_temperature;BME280_humidity;BME280_pressure;Samples;Min_cycle;Max_cycle;Signal;HPM_P1;HPM_P2
2022/04/20 00:00:41;;;;;;;6.45;2.63;;;9.60;69.10;;;;;;5047152;28;20029;-64
2022/04/20 00:03:07;;;;;;;8.30;2.90;;;9.60;69.20;;;;;;5046595;28;20494;-66
2022/04/20 00:05:33;;;;;;;6.88;3.60;;;9.60;69.20;;;;;;5047352;28;20508;-66
2022/04/20 00:08:03;;;;;;;7.68;2.80;;;9.50;69.00;;;;;;5056979;28;20175;-66
2022/04/20 00:10:29;;;;;;;4.88;2.60;;;9.50;68.90;;;;;;5056732;28;20045;-66
2022/04/20 00:12:55;;;;;;;6.40;3.15;;;9.50;68.70;;;;;;5050522;28;20053;-66
2022/04/20 00:15:21;;;;;;;4.30;2.42;;;9.50;68.70;;;;;;5051865;28;20064;-65
2022/04/20 00:17:46;;;;;;;5.25;2.28;;;9.40;68.60;;;;;;5052013;28;20131;-66
2022/04/20 00:20:13;;;;;;;5.05;2.83;;;9.40;68.60;;;;;;5052902;28;20051;-66
2022/04/20 00:22:39;;;;;;;6.28;2.60;;;9.40;68.50;;;;;;5052417;28;20456;-65
2022/04/20 00:25:05;;;;;;;4.78;2.60;;;9.40;68.40;;;;;;5052203;28;20045;-66
2022/04/20 00:27:37;;;;;;;6.50;2.85;;;9.30;68.50;;;;;;5050022;28;20041;-65
2022/04/20 00:30:04;;;;;;;5.78;3.05;;;9.30;68.40;;;;;;5051963;28;20041;-65
2022/04/20 00:32:30;;;;;;;6.55;3.00;;;9.30;68.20;;;;;;5051748;28;20123;-66
2022/04/20 00:34:56;;;;;;;5.88;2.90;;;9.30;68.10;;;;;;5050521;28;20202;-64
2022/04/20 00:37:22;;;;;;;5.00;3.03;;;9.20;68.10;;;;;;5052038;28;20037;-65
2022/04/20 00:39:47;;;;;;;7.90;2.55;;;9.20;68.00;;;;;;5058025;28;20119;-64
2022/04/20 00:42:13;;;;;;;6.05;2.85;;;9.20;67.90;;;;;;5054994;28;20044;-66
2022/04/20 00:44:40;;;;;;;7.25;2.70;;;9.10;67.80;;;;;;5059779;28;20080;-66
2022/04/20 00:47:07;;;;;;;5.57;2.90;;;9.10;67.70;;;;;;5050044;28;20049;-65
2022/04/20 00:49:35;;;;;;;11.00;3.60;;;9.10;67.70;;;;;;5053781;28;20037;-66
2022/04/20 00:52:03;;;;;;;8.88;3.47;;;9.10;67.60;;;;;;5052987;28;20110;-65
2022/04/20 00:54:29;;;;;;;9.20;2.83;;;9.10;67.60;;;;;;5050092;28;20048;-65
2022/04/20 00:56:55;;;;;;;6.30;3.17;;;9.10;67.60;;;;;;5051417;28;20062;-65
2022/04/20 00:59:24;;;;;;;5.68;2.75;;;9.00;67.50;;;;;;5056134;28;20052;-65
2022/04/20 01:01:50;;;;;;;5.47;3.30;;;9.00;67.50;;;;;;5037050;28;20045;-65
2022/04/20 01:04:16;;;;;;;7.63;3.10;;;8.90;67.60;;;;;;5059875;28;20413;-65
2022/04/20 01:06:42;;;;;;;4.55;2.90;;;8.90;67.70;;;;;;5057224;28;20697;-65
2022/04/20 01:09:09;;;;;;;5.38;4.50;;;8.90;67.80;;;;;;5052899;28;20041;-67
2022/04/20 01:11:34;;;;;;;5.82;3.30;;;8.80;67.70;;;;;;5067554;28;20469;-66
2022/04/20 01:14:00;;;;;;;6.00;2.88;;;8.80;67.70;;;;;;5050955;28;20048;-66
2022/04/20 01:16:26;;;;;;;4.95;2.67;;;8.80;67.70;;;;;;5051853;28;20040;-65
2022/04/20 01:18:53;;;;;;;4.53;2.97;;;8.80;67.70;;;;;;5051380;28;20045;-66
2022/04/20 01:21:19;;;;;;;10.05;3.30;;;8.80;67.70;;;;;;5053161;28;20091;-66
2022/04/20 01:23:45;;;;;;;8.02;3.50;;;8.80;67.60;;;;;;5050971;28;20091;-65
2022/04/20 01:26:11;;;;;;;5.85;3.47;;;8.80;67.60;;;;;;5050336;28;20493;-65
2022/04/20 01:28:38;;;;;;;9.32;4.35;;;8.80;67.50;;;;;;5050918;28;20049;-66
2022/04/20 01:31:04;;;;;;;6.78;4.32;;;8.80;67.60;;;;;;5050375;28;20564;-66
2022/04/20 01:33:30;;;;;;;5.95;3.67;;;8.70;67.50;;;;;;5050338;28;20041;-66
2022/04/20 01:35:56;;;;;;;8.73;3.53;;;8.70;67.50;;;;;;5051063;28;20059;-66
2022/04/20 01:38:22;;;;;;;8.02;3.50;;;8.70;67.50;;;;;;5050575;28;20090;-65
2022/04/20 01:40:47;;;;;;;4.32;2.92;;;8.70;67.40;;;;;;5052213;28;20033;-66
2022/04/20 01:43:13;;;;;;;5.15;3.05;;;8.70;67.40;;;;;;5050597;28;20084;-65
2022/04/20 01:45:38;;;;;;;5.60;3.55;;;8.70;67.40;;;;;;5049971;28;20041;-66
2022/04/20 01:48:06;;;;;;;7.85;3.78;;;8.60;67.40;;;;;;5050683;28;20485;-66
2022/04/20 01:50:31;;;;;;;10.70;4.32;;;8.70;67.60;;;;;;5050799;28;20076;-66
2022/04/20 01:52:57;;;;;;;7.47;3.00;;;8.70;67.60;;;;;;5049958;28;20563;-65
2022/04/20 01:55:22;;;;;;;6.88;3.80;;;8.70;67.60;;;;;;5056342;28;20128;-65
2022/04/20 01:57:48;;;;;;;6.15;3.30;;;8.70;67.70;;;;;;5052266;28;20433;-66
2022/04/20 02:00:16;;;;;;;5.03;3.55;;;8.70;67.80;;;;;;5049937;28;20036;-65
2022/04/20 02:02:42;;;;;;;6.18;3.35;;;8.60;67.60;;;;;;5049086;28;20167;-66
2022/04/20 02:05:10;;;;;;;6.28;3.40;;;8.60;67.50;;;;;;5050204;28;20052;-66
2022/04/20 02:07:37;;;;;;;6.35;3.70;;;8.60;67.50;;;;;;5048995;28;20048;-66
2022/04/20 02:10:04;;;;;;;7.53;3.90;;;8.60;67.50;;;;;;5050597;28;20045;-66
2022/04/20 02:12:30;;;;;;;5.85;3.00;;;8.60;67.50;;;;;;5050904;28;20631;-66
2022/04/20 02:14:55;;;;;;;7.28;3.90;;;8.60;67.60;;;;;;5049613;28;20132;-65
2022/04/20 02:17:21;;;;;;;7.93;3.65;;;8.60;67.70;;;;;;5050386;28;20045;-65
2022/04/20 02:19:47;;;;;;;5.28;3.50;;;8.60;67.90;;;;;;5052641;28;20115;-66
2022/04/20 02:22:13;;;;;;;9.93;4.20;;;8.60;68.00;;;;;;5046147;28;20473;-65
2022/04/20 02:24:39;;;;;;;7.25;3.92;;;8.60;68.20;;;;;;5049480;28;20450;-66
2022/04/20 02:27:05;;;;;;;5.65;3.65;;;8.60;68.40;;;;;;5050884;28;20037;-66
2022/04/20 02:29:30;;;;;;;6.45;3.33;;;8.60;68.60;;;;;;5050062;28;20056;-66
2022/04/20 02:31:56;;;;;;;6.45;3.40;;;8.50;68.70;;;;;;5048665;28;20075;-65
2022/04/20 02:34:22;;;;;;;6.30;3.33;;;8.50;68.70;;;;;;5049477;28;20041;-65
2022/04/20 02:36:48;;;;;;;6.72;3.85;;;8.50;68.80;;;;;;5055458;28;20049;-66
2022/04/20 02:39:14;;;;;;;7.60;3.83;;;8.40;68.90;;;;;;5049431;28;20627;-65
2022/04/20 02:41:40;;;;;;;4.53;3.15;;;8.40;68.90;;;;;;5050102;28;20072;-65
2022/04/20 02:44:07;;;;;;;11.07;4.05;;;8.40;69.00;;;;;;5047954;28;20056;-65
2022/04/20 02:46:34;;;;;;;5.43;3.55;;;8.40;69.00;;;;;;5053180;28;20040;-64
2022/04/20 02:49:00;;;;;;;6.38;3.47;;;8.30;69.10;;;;;;5049656;28;20044;-65
2022/04/20 02:51:26;;;;;;;6.68;3.88;;;8.30;69.10;;;;;;5053112;28;20059;-65
2022/04/20 02:53:52;;;;;;;8.40;4.07;;;8.30;69.20;;;;;;5048951;28;20039;-66
2022/04/20 02:56:18;;;;;;;5.88;3.22;;;8.20;69.10;;;;;;5051848;28;20139;-65
2022/04/20 02:58:43;;;;;;;7.07;3.75;;;8.20;69.10;;;;;;5048637;28;20187;-65
2022/04/20 03:01:09;;;;;;;6.57;4.13;;;8.30;69.20;;;;;;5048994;28;20448;-65
2022/04/20 03:03:35;;;;;;;6.65;4.22;;;8.30;69.20;;;;;;5066502;28;20041;-65
2022/04/20 03:06:01;;;;;;;6.43;4.10;;;8.30;69.20;;;;;;5050039;28;20063;-66
2022/04/20 03:08:27;;;;;;;6.35;4.10;;;8.20;69.20;;;;;;5047939;28;20390;-65
2022/04/20 03:10:53;;;;;;;6.63;3.65;;;8.20;69.30;;;;;;5049291;28;20071;-65
2022/04/20 03:13:19;;;;;;;7.85;3.70;;;8.20;69.30;;;;;;5066212;28;20063;-65
2022/04/20 03:15:46;;;;;;;5.45;3.72;;;8.20;69.30;;;;;;5058621;28;20405;-65
2022/04/20 03:18:12;;;;;;;6.85;4.00;;;8.20;69.30;;;;;;5050972;28;20405;-65
2022/04/20 03:20:38;;;;;;;9.35;3.75;;;8.20;69.30;;;;;;5048741;28;20051;-65
2022/04/20 03:23:04;;;;;;;7.95;4.07;;;8.10;69.20;;;;;;5061811;28;20040;-65
2022/04/20 03:25:30;;;;;;;6.82;4.10;;;8.10;69.00;;;;;;5051234;28;20421;-66
2022/04/20 03:27:55;;;;;;;7.07;3.45;;;8.10;69.20;;;;;;5048608;28;20047;-65
2022/04/20 03:30:21;;;;;;;6.63;4.00;;;8.10;69.10;;;;;;5048072;28;20443;-65
2022/04/20 03:32:47;;;;;;;8.15;3.80;;;8.10;69.00;;;;;;5049106;28;20544;-64
2022/04/20 03:35:14;;;;;;;8.15;3.13;;;8.00;68.90;;;;;;5048899;28;20634;-65
2022/04/20 03:37:39;;;;;;;5.85;3.40;;;8.00;68.90;;;;;;5050019;28;20480;-65
2022/04/20 03:40:05;;;;;;;7.43;3.90;;;8.00;68.90;;;;;;5047604;28;20584;-65
2022/04/20 03:42:31;;;;;;;7.13;3.90;;;7.90;68.90;;;;;;5049207;28;20041;-65
2022/04/20 03:44:57;;;;;;;8.18;3.47;;;7.90;69.00;;;;;;5048578;28;20041;-65
2022/04/20 03:47:23;;;;;;;9.68;3.88;;;7.90;69.00;;;;;;5052366;28;20102;-65
2022/04/20 03:49:48;;;;;;;6.70;4.15;;;7.90;69.00;;;;;;5047761;28;20037;-65
2022/04/20 03:52:14;;;;;;;11.45;4.40;;;7.80;68.90;;;;;;5039714;28;20073;-65
2022/04/20 03:54:39;;;;;;;10.13;3.92;;;7.80;68.80;;;;;;5032183;28;20043;-65
2022/04/20 03:57:07;;;;;;;7.05;3.83;;;7.80;68.80;;;;;;5049993;28;20049;-65
2022/04/20 03:59:35;;;;;;;4.95;3.28;;;7.70;68.90;;;;;;5064114;28;20067;-65
2022/04/20 04:02:01;;;;;;;7.00;3.80;;;7.60;69.10;;;;;;5052578;28;20045;-65
2022/04/20 04:04:27;;;;;;;5.95;3.55;;;7.60;69.20;;;;;;5050593;28;20102;-65
2022/04/20 04:06:53;;;;;;;6.38;3.95;;;7.60;69.20;;;;;;5049188;28;20044;-65
2022/04/20 04:09:19;;;;;;;7.18;3.90;;;7.60;69.60;;;;;;5052950;28;20053;-65
2022/04/20 04:11:45;;;;;;;9.73;3.88;;;7.50;69.70;;;;;;5029020;28;20049;-65
2022/04/20 04:14:10;;;;;;;5.05;3.60;;;7.50;69.90;;;;;;5043669;28;20099;-66
2022/04/20 04:16:36;;;;;;;4.57;3.55;;;7.40;69.90;;;;;;5035012;28;20045;-65
2022/04/20 04:19:08;;;;;;;6.18;3.90;;;7.40;70.00;;;;;;5053524;28;20037;-66
2022/04/20 04:21:38;;;;;;;6.15;4.35;;;7.40;70.10;;;;;;5052112;28;20118;-66
2022/04/20 04:24:08;;;;;;;7.30;3.85;;;7.50;70.10;;;;;;5026943;28;20073;-66
2022/04/20 04:26:34;;;;;;;7.55;3.30;;;7.40;70.30;;;;;;5033508;28;20049;-62
2022/04/20 04:28:59;;;;;;;7.70;4.03;;;7.80;75.00;;;;;;5040360;28;20086;-65
2022/04/20 04:31:26;;;;;;;8.27;4.53;;;8.40;75.50;;;;;;5048734;28;20045;-66
2022/04/20 04:33:52;;;;;;;7.35;4.65;;;8.40;72.70;;;;;;5046476;28;20547;-66
2022/04/20 04:36:17;;;;;;;7.80;4.10;;;8.30;71.00;;;;;;5047855;28;20041;-67
2022/04/20 04:38:43;;;;;;;5.93;3.88;;;8.10;70.40;;;;;;5047744;28;20064;-66
2022/04/20 04:41:09;;;;;;;7.07;3.88;;;8.10;70.20;;;;;;5049505;28;20060;-67
2022/04/20 04:43:35;;;;;;;9.68;4.93;;;7.90;70.20;;;;;;5038534;28;20095;-66
2022/04/20 04:48:48;;;;;;;8.68;4.80;;;7.90;70.60;;;;;;5047753;28;20510;-66
2022/04/20 04:51:14;;;;;;;6.78;4.35;;;7.90;70.80;;;;;;5045950;28;20085;-67
2022/04/20 04:53:40;;;;;;;8.75;4.85;;;7.90;70.90;;;;;;5033329;28;20076;-67
2022/04/20 04:56:06;;;;;;;8.30;4.22;;;7.90;71.00;;;;;;5041348;28;20597;-67
2022/04/20 04:58:32;;;;;;;12.00;4.90;;;8.00;71.10;;;;;;5047176;28;20405;-67
2022/04/20 05:00:58;;;;;;;9.00;4.15;;;7.90;71.20;;;;;;5043049;28;20057;-67
2022/04/20 05:03:24;;;;;;;7.88;4.82;;;7.90;71.20;;;;;;5052540;28;20038;-66
2022/04/20 05:05:50;;;;;;;8.23;5.22;;;7.90;71.30;;;;;;5050770;28;20083;-66
2022/04/20 05:08:16;;;;;;;6.53;4.47;;;7.90;71.50;;;;;;5044439;28;20053;-67
2022/04/20 05:10:42;;;;;;;8.52;4.68;;;8.00;71.50;;;;;;5043595;28;20055;-66
2022/04/20 05:13:08;;;;;;;8.00;4.85;;;7.90;71.70;;;;;;5044450;28;20114;-66
2022/04/20 05:15:34;;;;;;;6.60;4.70;;;8.00;71.70;;;;;;5058740;28;20052;-66
2022/04/20 05:18:00;;;;;;;10.32;4.88;;;7.90;71.90;;;;;;5053753;28;20428;-67
2022/04/20 05:20:26;;;;;;;10.60;4.50;;;8.00;72.00;;;;;;5050731;28;20049;-66
2022/04/20 05:22:53;;;;;;;6.53;4.35;;;8.00;72.00;;;;;;5050885;28;20037;-67
2022/04/20 05:25:18;;;;;;;7.35;4.47;;;8.00;72.10;;;;;;5056943;28;20507;-67
2022/04/20 05:27:44;;;;;;;9.88;4.90;;;8.00;72.20;;;;;;5056514;28;20124;-66
2022/04/20 05:30:15;;;;;;;9.18;4.68;;;8.00;72.30;;;;;;5051333;28;20041;-66
2022/04/20 05:32:42;;;;;;;9.25;4.45;;;8.00;72.40;;;;;;5051522;28;20037;-66
2022/04/20 05:35:08;;;;;;;10.18;4.32;;;8.00;72.40;;;;;;5049822;28;20107;-66
2022/04/20 05:43:02;;;;;;;8.77;4.00;;;8.10;72.50;;;;;;5062433;28;20076;-66
2022/04/20 05:45:28;;;;;;;7.35;4.30;;;8.10;72.50;;;;;;5049331;28;20049;-66
2022/04/20 05:47:53;;;;;;;7.22;4.50;;;8.20;72.60;;;;;;5058197;28;20041;-68
2022/04/20 05:50:19;;;;;;;7.43;4.70;;;8.10;72.70;;;;;;5050699;28;20586;-67
2022/04/20 05:52:45;;;;;;;9.73;4.63;;;8.20;72.80;;;;;;5065361;28;20040;-67
2022/04/20 05:55:10;;;;;;;6.93;4.60;;;8.20;72.80;;;;;;5055277;28;20045;-67
2022/04/20 05:57:37;;;;;;;6.53;4.03;;;8.30;72.60;;;;;;5056080;28;20060;-66
2022/04/20 06:00:04;;;;;;;10.63;3.90;;;8.40;72.50;;;;;;5050785;28;20718;-67
2022/04/20 06:02:33;;;;;;;9.65;5.18;;;8.40;72.50;;;;;;5049641;28;20045;-66
2022/04/20 06:05:00;;;;;;;7.90;3.95;;;8.40;72.50;;;;;;5049659;28;20652;-67
2022/04/20 06:07:26;;;;;;;7.00;3.78;;;8.60;73.30;;;;;;5060936;28;20131;-68
2022/04/20 06:09:51;;;;;;;10.68;4.47;;;8.70;72.60;;;;;;5053435;28;20176;-67
2022/04/20 06:12:17;;;;;;;9.13;4.13;;;8.80;72.20;;;;;;5058094;28;20060;-69
2022/04/20 06:14:42;;;;;;;9.50;5.35;;;9.10;73.40;;;;;;5050018;28;20122;-65
2022/04/20 06:17:08;;;;;;;11.70;4.90;;;9.20;72.40;;;;;;5057445;28;20106;-66
2022/04/20 06:19:34;;;;;;;9.10;4.32;;;9.30;71.50;;;;;;5070190;28;20080;-66
2022/04/20 06:22:00;;;;;;;6.45;3.70;;;9.30;71.20;;;;;;5067648;28;20044;-66
2022/04/20 06:24:25;;;;;;;6.45;3.75;;;9.30;70.80;;;;;;5052248;28;20048;-65
2022/04/20 06:26:51;;;;;;;7.00;4.25;;;9.30;70.60;;;;;;5048495;28;20163;-65
2022/04/20 06:29:17;;;;;;;14.07;4.13;;;9.20;70.30;;;;;;5051438;28;20068;-65
2022/04/20 06:31:44;;;;;;;10.57;3.83;;;9.20;70.20;;;;;;5050424;28;20036;-65
2022/04/20 06:34:10;;;;;;;5.50;3.80;;;9.30;70.20;;;;;;5049246;28;20049;-70
2022/04/20 06:36:35;;;;;;;10.48;3.53;;;9.30;70.10;;;;;;5062396;28;20048;-65
2022/04/20 06:39:01;;;;;;;9.35;3.50;;;10.20;73.90;;;;;;5049897;28;20036;-65
2022/04/20 06:41:27;;;;;;;6.35;3.50;;;10.40;70.00;;;;;;5041740;28;20065;-66
2022/04/20 06:43:52;;;;;;;6.72;3.75;;;10.30;68.30;;;;;;5032169;28;20405;-65
2022/04/20 06:46:18;;;;;;;6.43;3.85;;;10.20;67.90;;;;;;5041699;28;20041;-65
2022/04/20 06:48:44;;;;;;;6.57;3.85;;;10.10;67.70;;;;;;5032714;28;20653;-65
2022/04/20 06:51:09;;;;;;;6.85;3.88;;;10.00;67.60;;;;;;5051618;28;20041;-63
2022/04/20 06:58:31;;;;;;;8.98;3.70;;;9.90;67.10;;;;;;5037200;28;20054;-65
2022/04/20 06:59:12;;;;;;;6.40;3.33;;;9.80;67.20;;;;;;5030626;28;20064;-65
2022/04/20 07:01:38;;;;;;;5.20;3.30;;;9.80;67.10;;;;;;5033586;28;20478;-65
2022/04/20 07:04:05;;;;;;;4.47;3.00;;;9.80;66.90;;;;;;5060625;28;20059;-65
2022/04/20 07:06:32;;;;;;;7.43;3.53;;;9.80;66.60;;;;;;5030121;28;20569;-65
2022/04/20 07:08:57;;;;;;;18.00;3.92;;;9.80;66.50;;;;;;5047761;28;20406;-65
2022/04/20 07:11:23;;;;;;;6.30;3.47;;;9.90;66.50;;;;;;5043364;28;20045;-65
2022/04/20 07:13:50;;;;;;;4.78;3.05;;;9.90;66.50;;;;;;5044162;28;20060;-64
2022/04/20 07:16:15;;;;;;;4.22;2.40;;;9.90;66.50;;;;;;5048153;28;20059;-64
2022/04/20 07:18:41;;;;;;;6.43;3.03;;;10.00;66.00;;;;;;5049202;28;20040;-65
2022/04/20 07:21:07;;;;;;;6.57;3.05;;;10.10;66.10;;;;;;5047995;28;20028;-65
2022/04/20 07:23:32;;;;;;;5.63;2.25;;;10.20;65.90;;;;;;5037338;28;20056;-65
2022/04/20 07:25:58;;;;;;;5.28;2.72;;;10.20;64.80;;;;;;5033349;28;20048;-66
2022/04/20 07:28:23;;;;;;;10.93;2.80;;;10.20;64.30;;;;;;5047973;28;20049;-65
2022/04/20 07:30:49;;;;;;;7.80;2.95;;;10.30;64.10;;;;;;5043869;28;20042;-65
2022/04/20 07:33:15;;;;;;;8.88;3.72;;;10.40;64.40;;;;;;5046930;28;20065;-66
2022/04/20 07:35:44;;;;;;;5.55;3.45;;;10.50;64.60;;;;;;5049670;28;20493;-65
2022/04/20 07:38:10;;;;;;;7.38;3.20;;;10.60;64.60;;;;;;5048775;28;20102;-66
2022/04/20 07:40:35;;;;;;;5.78;3.28;;;10.60;64.20;;;;;;5064634;28;20056;-66
2022/04/20 07:43:01;;;;;;;5.47;2.65;;;10.60;64.10;;;;;;5049110;28;20128;-67
2022/04/20 07:45:27;;;;;;;4.85;2.92;;;10.70;63.80;;;;;;5049121;28;20197;-66
2022/04/20 07:47:57;;;;;;;7.65;3.42;;;10.80;63.40;;;;;;5048542;28;20041;-66
2022/04/20 07:50:24;;;;;;;6.43;2.53;;;10.80;63.60;;;;;;5048898;28;20049;-64
2022/04/20 07:53:00;;;;;;;8.02;2.85;;;10.80;63.60;;;;;;5048968;28;20081;-65
2022/04/20 07:55:29;;;;;;;5.93;2.95;;;11.00;63.50;;;;;;5048502;28;20512;-65
2022/04/20 07:57:56;;;;;;;8.48;2.80;;;11.00;63.10;;;;;;5049016;28;20390;-66
2022/04/20 08:00:22;;;;;;;5.78;3.05;;;11.00;62.30;;;;;;5032107;28;20506;-66
2022/04/20 08:02:49;;;;;;;5.03;3.38;;;11.10;61.70;;;;;;5027600;28;20075;-67
2022/04/20 08:05:17;;;;;;;5.45;3.13;;;11.10;61.90;;;;;;5027796;28;20049;-65
2022/04/20 08:07:44;;;;;;;8.48;2.80;;;11.20;61.90;;;;;;5028766;28;20073;-65
2022/04/20 08:10:11;;;;;;;4.38;2.50;;;11.20;61.80;;;;;;5028381;28;20045;-66
2022/04/20 08:12:42;;;;;;;4.82;2.70;;;11.30;60.90;;;;;;5028893;28;20057;-66
2022/04/20 08:15:09;;;;;;;6.97;3.08;;;11.40;60.20;;;;;;5028747;28;20045;-65
2022/04/20 08:17:35;;;;;;;5.50;2.85;;;11.50;60.40;;;;;;5028534;28;20049;-67
2022/04/20 08:20:05;;;;;;;3.05;2.20;;;11.50;60.70;;;;;;5028122;28;20049;-65
2022/04/20 08:22:31;;;;;;;5.53;2.45;;;11.60;60.20;;;;;;5028695;28;20399;-64
2022/04/20 08:24:57;;;;;;;4.82;2.17;;;11.80;59.90;;;;;;5045202;28;20040;-64
2022/04/20 08:27:23;;;;;;;4.75;2.28;;;11.80;59.80;;;;;;5048581;28;20052;-65
2022/04/20 08:29:51;;;;;;;3.92;2.38;;;11.90;59.70;;;;;;5048027;28;20037;-65
2022/04/20 08:32:18;;;;;;;4.85;2.97;;;12.00;59.00;;;;;;5048237;28;20056;-66
2022/04/20 08:34:44;;;;;;;5.75;2.60;;;12.10;58.50;;;;;;5047658;28;20055;-65
2022/04/20 08:37:11;;;;;;;6.40;2.53;;;12.10;58.40;;;;;;5050210;28;20067;-65
2022/04/20 08:39:38;;;;;;;6.15;2.80;;;12.20;58.30;;;;;;5052044;28;20052;-65
2022/04/20 08:42:06;;;;;;;7.43;3.03;;;12.20;58.30;;;;;;5051847;28;20047;-65
2022/04/20 08:44:35;;;;;;;6.28;2.70;;;12.20;56.90;;;;;;5051235;28;20099;-66
2022/04/20 08:47:02;;;;;;;5.07;2.75;;;12.30;56.90;;;;;;5050818;28;20057;-65
2022/04/20 08:49:28;;;;;;;5.80;2.40;;;12.30;56.60;;;;;;5051710;28;20106;-65
2022/04/20 08:54:39;;;;;;;2.95;1.60;;;12.40;56.60;;;;;;5051792;28;20041;-65
2022/04/20 08:57:15;;;;;;;8.93;2.00;;;12.50;56.00;;;;;;5051505;28;20051;-66
2022/04/20 08:59:48;;;;;;;9.52;1.67;;;12.60;55.30;;;;;;5051666;28;20536;-65
2022/04/20 09:02:15;;;;;;;4.82;2.28;;;12.80;54.50;;;;;;5051692;28;20048;-65
2022/04/20 09:04:41;;;;;;;4.20;1.92;;;12.90;54.20;;;;;;5051406;28;20037;-65
2022/04/20 09:07:08;;;;;;;4.65;1.40;;;13.00;53.80;;;;;;5051286;28;20405;-66
2022/04/20 09:09:34;;;;;;;3.25;1.85;;;13.00;53.20;;;;;;5051409;28;20118;-65
2022/04/20 09:11:59;;;;;;;4.30;1.75;;;13.10;52.30;;;;;;5051474;28;20490;-66
2022/04/20 09:14:30;;;;;;;3.58;1.65;;;13.10;51.20;;;;;;5051502;28;20057;-65
2022/04/20 09:16:56;;;;;;;3.00;1.80;;;13.10;51.90;;;;;;5033805;28;20048;-66
2022/04/20 09:19:25;;;;;;;3.92;1.17;;;13.20;51.30;;;;;;5050717;28;20060;-67
2022/04/20 09:21:55;;;;;;;4.03;1.63;;;13.30;50.30;;;;;;5051933;28;20045;-66
2022/04/20 09:24:21;;;;;;;3.45;1.50;;;13.30;50.10;;;;;;5051243;28;20088;-66
2022/04/20 09:26:54;;;;;;;4.72;1.90;;;13.50;50.70;;;;;;5051233;28;20487;-66
2022/04/20 09:29:21;;;;;;;5.00;1.40;;;13.50;49.60;;;;;;5050575;28;20045;-66
2022/04/20 09:31:49;;;;;;;3.92;1.30;;;13.50;50.10;;;;;;5051626;28;20087;-65
2022/04/20 09:34:54;;;;;;;2.50;0.95;;;13.60;49.20;;;;;;5050975;28;20048;-65
2022/04/20 09:37:19;;;;;;;5.88;1.58;;;13.70;47.70;;;;;;5043578;28;20055;-68
2022/04/20 09:39:46;;;;;;;4.07;1.25;;;13.70;47.00;;;;;;5049227;28;20471;-67
2022/04/20 09:42:12;;;;;;;2.30;1.42;;;13.70;46.40;;;;;;5041428;28;20057;-69
2022/04/20 09:44:41;;;;;;;4.28;1.20;;;13.80;47.10;;;;;;5013470;28;20418;-69
2022/04/20 09:50:02;;;;;;;3.38;1.10;;;14.00;47.10;;;;;;5049208;28;20115;-68
2022/04/20 09:52:42;;;;;;;3.40;1.20;;;14.00;43.60;;;;;;5049364;28;20037;-67
2022/04/20 09:55:11;;;;;;;1.67;1.15;;;14.10;44.50;;;;;;5046968;28;20468;-69
2022/04/20 09:57:37;;;;;;;2.20;1.48;;;14.10;44.20;;;;;;5032043;28;20452;-69
2022/04/20 10:00:14;;;;;;;7.53;1.50;;;14.10;44.50;;;;;;5049509;28;20044;-69
2022/04/20 10:02:47;;;;;;;4.53;1.20;;;14.20;45.00;;;;;;5034080;28;20048;-68
2022/04/20 10:05:14;;;;;;;2.85;1.20;;;14.20;44.40;;;;;;5042401;28;20512;-70
2022/04/20 10:07:39;;;;;;;2.45;0.98;;;14.20;44.50;;;;;;5044557;28;20439;-69
2022/04/20 10:10:05;;;;;;;3.70;1.25;;;14.30;43.40;;;;;;5035792;28;20139;-69
2022/04/20 10:12:32;;;;;;;4.80;1.30;;;14.20;42.80;;;;;;5049530;28;20072;-67
2022/04/20 10:17:47;;;;;;;2.42;1.55;;;14.30;42.50;;;;;;5050161;28;20076;-67
2022/04/20 10:20:14;;;;;;;3.38;1.55;;;14.30;43.60;;;;;;5049905;28;20124;-67
2022/04/20 10:22:40;;;;;;;2.17;0.80;;;14.30;42.40;;;;;;5050461;28;20481;-67
2022/04/20 10:25:07;;;;;;;2.28;1.30;;;14.40;41.80;;;;;;5067564;28;20064;-67
2022/04/20 10:27:57;;;;;;;3.80;1.10;;;14.40;41.00;;;;;;5068630;28;20044;-67
2022/04/20 10:31:00;;;;;;;2.20;1.20;;;14.50;42.40;;;;;;5047926;28;20045;-67
2022/04/20 10:33:31;;;;;;;2.70;1.20;;;14.60;40.70;;;;;;5045822;28;20071;-67
2022/04/20 10:35:58;;;;;;;2.40;0.70;;;14.60;41.00;;;;;;5049493;28;20037;-69
2022/04/20 10:38:25;;;;;;;2.30;1.30;;;14.60;41.90;;;;;;5050132;28;20117;-67
2022/04/20 10:40:58;;;;;;;3.15;1.17;;;14.70;41.40;;;;;;5049591;28;20098;-67
2022/04/20 10:43:24;;;;;;;7.18;1.08;;;14.80;39.60;;;;;;5050256;28;20037;-68
2022/04/20 10:46:11;;;;;;;2.45;1.10;;;14.80;40.30;;;;;;5049119;28;20606;-68
2022/04/20 10:48:47;;;;;;;3.35;0.98;;;14.80;37.50;;;;;;5049654;28;20056;-68
2022/04/20 10:51:22;;;;;;;1.40;0.90;;;14.80;39.30;;;;;;5030439;28;20060;-68
2022/04/20 10:53:50;;;;;;;4.38;1.10;;;14.80;39.50;;;;;;5044166;28;20516;-68
2022/04/20 10:56:18;;;;;;;4.60;1.00;;;14.90;40.10;;;;;;5048117;28;20041;-68
2022/04/20 10:58:51;;;;;;;3.15;0.93;;;14.90;39.50;;;;;;5047894;28;20608;-69
2022/04/20 11:01:17;;;;;;;4.82;1.15;;;15.00;39.70;;;;;;5038796;28;20046;-68
2022/04/20 11:03:58;;;;;;;2.85;0.93;;;15.00;39.30;;;;;;5049552;28;20047;-67
2022/04/20 11:06:58;;;;;;;7.20;1.00;;;15.10;38.80;;;;;;5040587;28;20440;-68
2022/04/20 11:09:42;;;;;;;4.53;1.13;;;15.10;39.20;;;;;;5047944;28;20597;-68
2022/04/20 11:21:07;;;;;;;1.40;0.90;;;15.30;38.40;;;;;;5046984;28;20493;-67
2022/04/20 11:23:57;;;;;;;6.57;2.00;;;15.30;39.20;;;;;;5049111;28;20063;-68
2022/04/20 11:26:35;;;;;;;3.92;1.33;;;15.40;39.00;;;;;;5047852;28;20052;-67
2022/04/20 11:29:14;;;;;;;6.70;1.23;;;15.60;40.10;;;;;;5048403;28;20055;-68
2022/04/20 11:31:48;;;;;;;4.93;1.40;;;15.70;40.20;;;;;;5048953;28;20052;-68
2022/04/20 11:34:16;;;;;;;3.63;1.05;;;15.70;40.10;;;;;;5047799;28;20413;-66
2022/04/20 11:36:44;;;;;;;2.63;1.23;;;15.70;39.10;;;;;;5048029;28;20524;-67
2022/04/20 11:39:11;;;;;;;2.88;2.22;;;15.70;39.10;;;;;;5048222;28;20086;-68
2022/04/20 11:41:42;;;;;;;5.00;1.25;;;15.90;39.70;;;;;;5047536;28;20091;-67
2022/04/20 11:44:24;;;;;;;2.10;1.00;;;16.00;39.50;;;;;;5048733;28;20095;-68
2022/04/20 11:46:51;;;;;;;1.70;1.20;;;16.10;39.10;;;;;;5031133;28;20076;-67
2022/04/20 11:49:18;;;;;;;2.20;1.05;;;16.00;38.40;;;;;;5049011;28;20041;-69
2022/04/20 11:51:58;;;;;;;2.65;1.45;;;16.00;37.80;;;;;;5046968;28;20121;-70
2022/04/20 11:54:25;;;;;;;2.63;1.35;;;16.00;37.70;;;;;;5048546;28;20056;-70
2022/04/20 11:56:51;;;;;;;5.38;1.30;;;16.00;39.50;;;;;;5048276;28;20115;-70
2022/04/20 11:59:21;;;;;;;2.35;1.05;;;16.10;40.00;;;;;;5048607;28;20147;-70
2022/04/20 12:01:47;;;;;;;3.42;1.20;;;16.20;38.60;;;;;;5047512;28;20040;-70
2022/04/20 12:04:18;;;;;;;3.70;1.40;;;16.30;38.50;;;;;;5048173;28;20047;-70
2022/04/20 12:06:52;;;;;;;2.47;2.00;;;16.30;39.50;;;;;;5047254;28;20080;-70
2022/04/20 12:09:25;;;;;;;4.00;1.20;;;16.50;39.40;;;;;;5048515;28;20041;-70
2022/04/20 12:11:52;;;;;;;4.47;1.60;;;16.60;39.30;;;;;;5032187;28;20057;-70
2022/04/20 12:14:23;;;;;;;3.67;1.50;;;16.60;38.50;;;;;;5052245;28;20470;-70
2022/04/20 12:16:51;;;;;;;4.30;1.38;;;16.60;37.60;;;;;;5051454;28;20049;-70
2022/04/20 12:19:19;;;;;;;4.38;1.20;;;16.50;37.70;;;;;;5051328;28;20052;-70
2022/04/20 12:21:46;;;;;;;2.20;1.08;;;16.50;38.20;;;;;;5044837;28;20067;-70
2022/04/20 12:24:25;;;;;;;4.95;1.23;;;16.50;38.00;;;;;;5048117;28;20137;-71
2022/04/20 12:26:53;;;;;;;2.47;1.08;;;16.60;38.40;;;;;;5049133;28;20131;-68
2022/04/20 12:29:21;;;;;;;2.33;1.35;;;16.70;38.40;;;;;;5040264;28;20303;-67
2022/04/20 12:31:50;;;;;;;2.80;1.17;;;16.90;38.20;;;;;;5048004;28;20045;-67
2022/04/20 12:34:17;;;;;;;3.88;1.10;;;16.90;37.90;;;;;;5037830;28;20050;-67
2022/04/20 12:36:53;;;;;;;2.88;1.30;;;17.00;37.60;;;;;;5050058;28;20052;-67
2022/04/20 12:39:23;;;;;;;1.40;1.00;;;17.10;38.10;;;;;;5050765;28;20119;-67
2022/04/20 12:41:52;;;;;;;2.47;1.08;;;17.20;37.80;;;;;;5051895;28;20051;-67
2022/04/20 12:44:36;;;;;;;3.00;1.13;;;17.30;37.40;;;;;;5052143;28;20051;-67
2022/04/20 12:47:08;;;;;;;4.05;0.82;;;17.40;35.50;;;;;;5051397;28;20052;-68
2022/04/20 12:49:53;;;;;;;1.33;0.77;;;17.40;36.90;;;;;;5052149;28;20489;-67
2022/04/20 12:52:22;;;;;;;3.78;1.33;;;17.40;36.90;;;;;;5051491;28;20184;-67
2022/04/20 12:54:55;;;;;;;4.57;1.10;;;17.40;35.40;;;;;;5051826;28;20033;-67
2022/04/20 13:03:04;;;;;;;4.38;0.90;;;17.50;36.30;;;;;;5046428;28;20107;-67
2022/04/20 13:05:37;;;;;;;1.55;0.65;;;17.60;37.30;;;;;;5050981;28;20056;-67
2022/04/20 13:08:10;;;;;;;8.50;1.40;;;17.70;35.80;;;;;;5050263;28;20060;-67
2022/04/20 13:10:37;;;;;;;2.10;0.85;;;17.60;37.00;;;;;;5051118;28;20041;-68
2022/04/20 13:13:04;;;;;;;2.22;0.70;;;17.70;37.30;;;;;;5049527;28;20132;-68
2022/04/20 13:15:30;;;;;;;2.65;0.88;;;17.70;36.60;;;;;;5051369;28;20178;-68
2022/04/20 13:17:59;;;;;;;1.92;0.70;;;17.80;36.30;;;;;;5050174;28;20507;-68
2022/04/20 13:20:27;;;;;;;1.10;0.60;;;17.80;37.00;;;;;;5054376;28;20043;-68
2022/04/20 13:22:53;;;;;;;1.08;0.70;;;17.90;36.00;;;;;;5050789;28;20048;-67
2022/04/20 13:28:03;;;;;;;1.65;1.00;;;17.90;36.70;;;;;;5049568;28;20532;-67
2022/04/20 13:30:36;;;;;;;6.03;0.60;;;17.80;37.40;;;;;;5050294;28;20053;-70
2022/04/20 13:33:04;;;;;;;3.10;0.88;;;18.00;37.70;;;;;;5049539;28;20049;-68